Marilia, Brazil
Current Conditions -  °F | °C
As of 2:00 AM on Monday 24 Nov 2014 (Local Time) from SBBU Reporting Station
Clear Clear  
Wind Chill: 72°   Ceiling: Unl
Heat Index: 72°   Visibility: 6mi
Dew Point: 70°   Wind: 12mph
Humidity: 94%   Direction: 140°SE
Pressure: 29.97"   Gusts: NA
Location:  22.21°S, 49.95°W
Report Text: SBBU 240400Z 14010KT CAVOK 22/21 Q1015
Loading
Personal Weather Stations






























Interactive Weather Map New forecast layout! Learn more

10-Day Weather Forecast

Advertisements
Track Severe Weather on mobile